Terminal Aerodrome Forecast
Issued by NWS

Home | Current Version | Previous Version | Text Only | Print | Product List | Glossary On
Versions: 1 2 3 4 5 6 7 8 9 10 11 12 13 14 15 16
623
FTUS42 KMLB 311138
TAFLEE
TAF
KLEE 311138Z 3112/0112 23005KT P6SM SCT120 SCT250
     FM311400 VRB04KT P6SM SCT035
     FM312000 18006KT P6SM VCTS SCT035CB BKN250
     FM010000 VRB06KT P6SM FEW035 SCT100 BKN250=

USA.gov is the U.S. government's official web portal to all federal, state and local government web resources and services.